This is the latest recevied weather packets stored in our database for station/object 9W2CEW-1. If no packets are shown the sender has not sent any weather packets the latest 10 day(s).
| Time | Temp. | Humidity | Pressure | Rain* | Wind** | Luminosity | Snow |
|---|---|---|---|---|---|---|---|
| 1787878411 | 35° C | 42% | 1006.7 hPa | - | - | - | - |
| 1787877511 | 31.67° C | 50% | 1006.6 hPa | - | - | - | - |
| 1787876611 | 31.67° C | 54% | 1006.8 hPa | - | - | - | - |
| 1787875711 | 33.33° C | 52% | 1006.8 hPa | - | - | - | - |
| 1787874813 | 35.56° C | 45% | 1006.5 hPa | - | - | - | - |
| 1787873911 | 32.22° C | 54% | 1006.9 hPa | - | - | - | - |
| 1787873011 | 31.11° C | 54% | 1007.1 hPa | - | - | - | - |
| 1787872111 | 30.56° C | 56% | 1006.9 hPa | - | - | - | - |
| 1787871211 | 30° C | 61% | 1007.2 hPa | - | - | - | - |
| 1787870310 | 33.33° C | 59% | 1006.8 hPa | - | - | - | - |
| 1787869412 | 33.33° C | 58% | 1006.6 hPa | - | - | - | - |
| 1787868510 | 36.67° C | 46% | 1006.2 hPa | - | - | - | - |
| 1787867610 | 37.22° C | 46% | 1006 hPa | - | - | - | - |
| 1787866710 | 36.67° C | 45% | 1005.8 hPa | - | - | - | - |
| 1787865810 | 37.78° C | 44% | 1005.7 hPa | - | - | - | - |
| 1787864967 | 37.78° C | 43% | 1005.4 hPa | - | - | - | - |
| 1787864910 | 37.78° C | 43% | 1005.4 hPa | - | - | - | - |
| 1787864010 | 36.67° C | 46% | 1005.2 hPa | - | - | - | - |
| 1787863110 | 36.11° C | 47% | 1005 hPa | - | - | - | - |
| 1787862210 | 35.56° C | 48% | 1004.8 hPa | - | - | - | - |
| 1787861311 | 35° C | 49% | 1005.1 hPa | - | - | - | - |
| 1787860411 | 37.22° C | 44% | 1005.2 hPa | - | - | - | - |
| 1787859511 | 37.22° C | 45% | 1005.4 hPa | - | - | - | - |
| 1787858611 | 37.78° C | 44% | 1005.6 hPa | - | - | - | - |
| 1787857711 | 36.11° C | 48% | 1005.5 hPa | - | - | - | - |
* Rain since midnight (hover to see other rain measurements)
** Current wind speed in m/s (hover to see current wind gust speed)